Time;durP1;ratioP1;P1;durP2;ratioP2;P2;SDS_P1;SDS_P2;PMS_P1;PMS_P2;Temp;Humidity;BMP_temperature;BMP_pressure;BME280_temperature;BME280_humidity;BME280_pressure;Samples;Min_cycle;Max_cycle;Signal;HPM_P1;HPM_P2
2023/02/25 00:00:33;;;;;;;8.38;2.95;;;;;;;;;;5072172;28;20486;-82
2023/02/25 00:02:59;;;;;;;7.63;3.03;;;;;;;;;;5074813;28;20032;-82
2023/02/25 00:05:26;;;;;;;9.88;3.20;;;;;;;;;;5071898;28;20740;-83
2023/02/25 00:07:52;;;;;;;10.10;2.80;;;;;;;;;;5073073;28;20043;-84
2023/02/25 00:10:18;;;;;;;7.20;2.70;;;;;;;;;;5080002;27;20524;-84
2023/02/25 00:12:45;;;;;;;8.15;2.42;;;;;;;;;;5067534;28;20021;-83
2023/02/25 00:15:12;;;;;;;14.38;3.60;;;;;;;;;;5069733;28;20205;-83
2023/02/25 00:17:42;;;;;;;7.05;2.83;;;;;;;;;;5076531;28;20035;-83
2023/02/25 00:20:12;;;;;;;5.90;2.92;;;;;;;;;;5073026;28;20045;-84
2023/02/25 00:22:39;;;;;;;8.55;2.97;;;;;;;;;;5073945;28;20030;-82
2023/02/25 00:25:09;;;;;;;6.13;2.50;;;;;;;;;;5057611;28;20123;-83
2023/02/25 00:27:36;;;;;;;8.88;3.00;;;;;;;;;;5066694;28;20067;-83
2023/02/25 00:30:02;;;;;;;5.53;2.60;;;;;;;;;;5065190;28;20600;-83
2023/02/25 00:32:28;;;;;;;6.13;2.42;;;;;;;;;;5087440;27;20023;-83
2023/02/25 00:34:56;;;;;;;9.13;2.60;;;;;;;;;;5065778;28;20019;-83
2023/02/25 00:37:22;;;;;;;5.40;2.30;;;;;;;;;;5079248;28;20522;-83
2023/02/25 00:39:48;;;;;;;7.97;3.30;;;;;;;;;;5069306;28;20463;-83
2023/02/25 00:42:15;;;;;;;8.02;2.55;;;;;;;;;;5068390;28;20031;-83
2023/02/25 00:44:46;;;;;;;8.77;2.45;;;;;;;;;;5061924;28;20043;-84
2023/02/25 00:47:13;;;;;;;11.95;2.90;;;;;;;;;;5075044;28;20030;-84
2023/02/25 00:49:42;;;;;;;10.32;3.17;;;;;;;;;;5064647;28;20034;-83
2023/02/25 00:52:09;;;;;;;10.63;2.67;;;;;;;;;;5084598;27;20027;-84
2023/02/25 00:54:35;;;;;;;10.73;3.10;;;;;;;;;;5079217;28;20035;-83
2023/02/25 00:57:01;;;;;;;12.15;3.00;;;;;;;;;;5087734;28;20097;-83
2023/02/25 00:59:27;;;;;;;11.18;2.78;;;;;;;;;;5076582;28;20057;-84
2023/02/25 01:01:54;;;;;;;12.63;3.17;;;;;;;;;;5080237;28;20152;-83
2023/02/25 01:04:20;;;;;;;6.45;2.63;;;;;;;;;;5075431;28;20082;-84
2023/02/25 01:06:46;;;;;;;7.53;2.47;;;;;;;;;;5071999;28;20024;-83
2023/02/25 01:09:12;;;;;;;11.35;3.15;;;;;;;;;;5073778;28;20122;-83
2023/02/25 01:11:41;;;;;;;9.85;2.70;;;;;;;;;;5064673;27;20071;-83
2023/02/25 01:14:09;;;;;;;9.25;2.67;;;;;;;;;;5075874;28;20135;-84
2023/02/25 01:16:35;;;;;;;11.85;3.08;;;;;;;;;;5072780;28;20081;-81
2023/02/25 01:19:03;;;;;;;12.55;3.40;;;;;;;;;;5069792;28;20532;-83
2023/02/25 01:21:31;;;;;;;11.27;2.67;;;;;;;;;;5072601;28;20182;-83
2023/02/25 01:24:02;;;;;;;13.45;2.88;;;;;;;;;;5075000;28;20193;-83
2023/02/25 01:26:29;;;;;;;17.02;3.30;;;;;;;;;;5075751;27;20161;-84
2023/02/25 01:28:56;;;;;;;15.10;2.63;;;;;;;;;;5078620;28;20509;-83
2023/02/25 01:31:30;;;;;;;10.68;3.67;;;;;;;;;;5089107;28;20047;-84
2023/02/25 01:34:00;;;;;;;15.38;3.50;;;;;;;;;;5086186;28;20476;-83
2023/02/25 01:36:26;;;;;;;13.93;3.38;;;;;;;;;;5069175;28;20445;-84
2023/02/25 01:38:52;;;;;;;18.90;4.15;;;;;;;;;;5067858;28;20035;-84
2023/02/25 01:41:19;;;;;;;12.88;2.80;;;;;;;;;;5068822;28;20441;-83
2023/02/25 01:44:05;;;;;;;15.57;3.13;;;;;;;;;;5076104;28;20031;-84
2023/02/25 01:46:31;;;;;;;14.38;2.90;;;;;;;;;;5068102;28;20023;-84
2023/02/25 01:48:58;;;;;;;18.40;3.33;;;;;;;;;;5069497;28;20138;-83
2023/02/25 01:51:27;;;;;;;17.27;3.25;;;;;;;;;;5064207;28;20038;-84
2023/02/25 01:53:54;;;;;;;19.98;3.88;;;;;;;;;;5089274;28;20028;-84
2023/02/25 01:56:22;;;;;;;16.77;4.50;;;;;;;;;;5089194;28;20051;-85
2023/02/25 01:58:49;;;;;;;13.90;3.38;;;;;;;;;;5087136;28;20457;-83
2023/02/25 02:01:18;;;;;;;12.82;2.97;;;;;;;;;;5080453;28;20070;-83
2023/02/25 02:03:44;;;;;;;19.15;3.13;;;;;;;;;;5071250;28;20041;-84
2023/02/25 02:06:11;;;;;;;17.13;2.88;;;;;;;;;;5068141;28;20509;-84
2023/02/25 02:08:38;;;;;;;11.93;3.70;;;;;;;;;;5075882;28;20197;-83
2023/02/25 02:11:05;;;;;;;18.30;3.28;;;;;;;;;;5080190;28;20024;-83
2023/02/25 02:13:33;;;;;;;15.93;2.63;;;;;;;;;;5086637;28;20490;-84
2023/02/25 02:16:14;;;;;;;11.82;3.38;;;;;;;;;;5057760;28;20077;-84
2023/02/25 02:18:43;;;;;;;14.63;3.15;;;;;;;;;;5078808;28;20027;-84
2023/02/25 02:21:33;;;;;;;13.35;3.55;;;;;;;;;;5078330;28;20034;-84
2023/02/25 02:24:23;;;;;;;15.55;3.35;;;;;;;;;;5090753;28;20024;-84
2023/02/25 02:26:53;;;;;;;18.30;4.47;;;;;;;;;;5076283;28;20046;-82
2023/02/25 02:29:26;;;;;;;21.98;3.95;;;;;;;;;;5078212;28;20062;-85
2023/02/25 02:32:02;;;;;;;17.20;3.38;;;;;;;;;;5090480;28;20187;-82
2023/02/25 02:34:50;;;;;;;18.90;3.53;;;;;;;;;;5088428;28;20023;-84
2023/02/25 02:37:37;;;;;;;12.20;3.33;;;;;;;;;;5052962;28;20016;-84
2023/02/25 02:40:18;;;;;;;14.60;3.20;;;;;;;;;;5059425;28;20448;-83
2023/02/25 02:43:17;;;;;;;11.20;2.67;;;;;;;;;;5086310;28;20026;-84
2023/02/25 02:45:48;;;;;;;11.05;3.08;;;;;;;;;;5022568;28;20436;-84
2023/02/25 02:48:20;;;;;;;14.13;3.20;;;;;;;;;;5085152;28;20062;-83
2023/02/25 02:50:48;;;;;;;19.38;3.50;;;;;;;;;;5069414;28;20023;-84
2023/02/25 02:53:19;;;;;;;17.75;3.00;;;;;;;;;;5077642;28;20182;-84
2023/02/25 02:55:53;;;;;;;15.68;4.63;;;;;;;;;;5076381;28;20031;-84
2023/02/25 02:58:38;;;;;;;21.45;3.83;;;;;;;;;;5080173;28;20027;-82
2023/02/25 03:01:13;;;;;;;17.88;3.42;;;;;;;;;;5079309;28;20508;-83
2023/02/25 03:03:41;;;;;;;20.75;4.60;;;;;;;;;;5088692;28;20598;-84
2023/02/25 03:06:09;;;;;;;18.55;3.72;;;;;;;;;;5079017;28;20032;-84
2023/02/25 03:08:39;;;;;;;12.27;2.90;;;;;;;;;;5085054;28;20861;-84
2023/02/25 03:11:05;;;;;;;12.77;2.80;;;;;;;;;;5079196;28;20062;-83
2023/02/25 03:13:32;;;;;;;14.82;2.92;;;;;;;;;;5087890;28;20088;-82
2023/02/25 03:16:00;;;;;;;11.05;2.80;;;;;;;;;;5059328;28;20020;-82
2023/02/25 03:18:38;;;;;;;11.98;2.90;;;;;;;;;;5071570;28;20467;-84
2023/02/25 03:21:08;;;;;;;11.27;2.53;;;;;;;;;;5069045;28;20497;-84
2023/02/25 03:23:37;;;;;;;9.60;2.67;;;;;;;;;;5086471;28;20058;-82
2023/02/25 03:26:24;;;;;;;14.77;2.90;;;;;;;;;;5076116;28;20106;-83
2023/02/25 03:28:50;;;;;;;9.20;2.70;;;;;;;;;;5076341;28;20430;-84
2023/02/25 03:31:40;;;;;;;11.75;2.50;;;;;;;;;;5082888;28;20438;-84
2023/02/25 03:34:07;;;;;;;13.98;2.97;;;;;;;;;;5075518;28;20066;-84
2023/02/25 03:36:42;;;;;;;14.63;2.65;;;;;;;;;;5101836;28;20023;-83
2023/02/25 03:39:18;;;;;;;10.68;2.70;;;;;;;;;;5088794;28;20055;-83
2023/02/25 03:41:46;;;;;;;14.27;3.08;;;;;;;;;;5088970;28;20478;-84
2023/02/25 03:44:14;;;;;;;8.75;2.20;;;;;;;;;;5094417;28;20027;-83
2023/02/25 03:46:42;;;;;;;14.32;2.92;;;;;;;;;;5086321;28;20020;-84
2023/02/25 03:49:10;;;;;;;17.70;3.28;;;;;;;;;;5098207;28;20043;-84
2023/02/25 03:51:39;;;;;;;10.63;2.83;;;;;;;;;;5075876;28;20024;-83
2023/02/25 03:54:06;;;;;;;10.68;3.10;;;;;;;;;;5089041;28;20555;-84
2023/02/25 03:56:49;;;;;;;14.93;2.88;;;;;;;;;;5093358;27;20044;-84
2023/02/25 03:59:16;;;;;;;17.25;3.45;;;;;;;;;;5080190;28;20027;-83
2023/02/25 04:01:44;;;;;;;12.32;3.05;;;;;;;;;;5088496;27;20024;-83
2023/02/25 04:04:10;;;;;;;21.27;3.63;;;;;;;;;;5090016;28;20042;-82
2023/02/25 04:06:37;;;;;;;21.00;3.53;;;;;;;;;;5087842;28;20105;-82
2023/02/25 04:09:08;;;;;;;15.52;3.80;;;;;;;;;;5084789;28;20038;-83
2023/02/25 04:11:35;;;;;;;14.93;3.42;;;;;;;;;;5085420;28;20078;-82
2023/02/25 04:14:01;;;;;;;8.52;2.92;;;;;;;;;;5072019;28;20033;-83
2023/02/25 04:16:27;;;;;;;15.63;3.53;;;;;;;;;;5070509;28;20509;-83
2023/02/25 04:18:53;;;;;;;19.27;3.17;;;;;;;;;;5072638;28;20240;-83
2023/02/25 04:21:28;;;;;;;16.35;2.97;;;;;;;;;;5083989;27;20258;-83
2023/02/25 04:23:54;;;;;;;18.85;2.92;;;;;;;;;;5070290;28;20373;-83
2023/02/25 04:26:21;;;;;;;19.75;3.65;;;;;;;;;;5063151;27;20481;-84
2023/02/25 04:28:47;;;;;;;17.58;3.42;;;;;;;;;;5068609;28;20016;-85
2023/02/25 04:31:13;;;;;;;14.10;2.85;;;;;;;;;;5090034;28;20459;-83
2023/02/25 04:33:39;;;;;;;14.27;3.55;;;;;;;;;;5075714;28;20058;-81
2023/02/25 04:36:20;;;;;;;17.13;2.95;;;;;;;;;;5074931;28;20031;-83
2023/02/25 04:38:47;;;;;;;11.52;3.00;;;;;;;;;;5070399;28;20119;-83
2023/02/25 04:41:13;;;;;;;9.18;2.38;;;;;;;;;;5070475;28;20115;-84
2023/02/25 04:43:44;;;;;;;9.02;2.92;;;;;;;;;;5073954;28;20208;-82
2023/02/25 04:46:10;;;;;;;4.90;2.30;;;;;;;;;;5075596;28;20031;-84
2023/02/25 04:48:38;;;;;;;14.93;3.20;;;;;;;;;;5077205;28;20047;-83
2023/02/25 04:51:05;;;;;;;12.65;2.50;;;;;;;;;;5076843;28;20039;-83
2023/02/25 04:53:31;;;;;;;10.80;2.30;;;;;;;;;;5097499;27;20043;-84
2023/02/25 04:56:01;;;;;;;11.65;2.20;;;;;;;;;;5063581;28;20051;-83
2023/02/25 04:58:27;;;;;;;7.65;2.20;;;;;;;;;;5084045;28;20482;-83
2023/02/25 05:00:56;;;;;;;6.15;2.13;;;;;;;;;;5067997;28;20119;-84
2023/02/25 05:03:24;;;;;;;11.75;2.15;;;;;;;;;;5084609;27;20024;-83
2023/02/25 05:05:50;;;;;;;6.65;1.83;;;;;;;;;;5073181;28;20031;-83
2023/02/25 05:08:20;;;;;;;10.27;2.22;;;;;;;;;;5078731;28;20044;-83
2023/02/25 05:10:46;;;;;;;8.10;2.55;;;;;;;;;;5064403;28;20020;-83
2023/02/25 05:13:13;;;;;;;8.43;2.50;;;;;;;;;;5077012;28;20385;-82
2023/02/25 05:15:39;;;;;;;8.38;2.53;;;;;;;;;;5076349;28;20051;-83
2023/02/25 05:18:05;;;;;;;13.23;2.50;;;;;;;;;;5077844;28;20533;-83
2023/02/25 05:20:32;;;;;;;16.63;3.45;;;;;;;;;;5067612;28;20631;-83
2023/02/25 05:22:58;;;;;;;10.35;2.65;;;;;;;;;;5060564;28;21052;-83
2023/02/25 05:25:24;;;;;;;11.38;2.35;;;;;;;;;;5069954;28;20139;-84
2023/02/25 05:27:51;;;;;;;19.40;3.75;;;;;;;;;;5060920;28;20028;-84
2023/02/25 05:30:18;;;;;;;5.90;2.70;;;;;;;;;;5073720;28;20024;-83
2023/02/25 05:32:44;;;;;;;8.30;2.72;;;;;;;;;;5077909;28;20035;-83
2023/02/25 05:35:10;;;;;;;5.53;2.40;;;;;;;;;;5083453;28;20097;-85
2023/02/25 05:37:37;;;;;;;14.00;2.60;;;;;;;;;;5074380;28;20027;-84
2023/02/25 05:40:04;;;;;;;8.68;2.60;;;;;;;;;;5082093;28;20035;-84
2023/02/25 05:42:30;;;;;;;14.00;2.85;;;;;;;;;;5088028;28;20502;-83
2023/02/25 05:44:56;;;;;;;10.80;2.67;;;;;;;;;;5085434;28;20040;-84
2023/02/25 05:47:22;;;;;;;9.35;2.15;;;;;;;;;;5074439;28;20074;-83
2023/02/25 05:49:48;;;;;;;10.35;2.75;;;;;;;;;;5063565;28;20048;-82
2023/02/25 05:52:15;;;;;;;5.38;2.38;;;;;;;;;;5071907;28;20443;-83
2023/02/25 05:54:41;;;;;;;9.52;2.53;;;;;;;;;;5066074;28;20020;-86
2023/02/25 05:57:07;;;;;;;13.88;3.28;;;;;;;;;;5059407;28;20083;-84
2023/02/25 05:59:35;;;;;;;7.32;2.42;;;;;;;;;;5057170;28;20024;-85
2023/02/25 06:02:02;;;;;;;10.38;2.92;;;;;;;;;;5061235;28;20028;-83
2023/02/25 06:04:28;;;;;;;10.13;2.60;;;;;;;;;;5065728;28;20165;-83
2023/02/25 06:06:54;;;;;;;6.80;2.28;;;;;;;;;;5066693;28;21303;-83
2023/02/25 06:09:21;;;;;;;8.93;2.53;;;;;;;;;;5053355;28;20028;-86
2023/02/25 06:11:48;;;;;;;8.05;2.70;;;;;;;;;;5056806;28;20116;-83
2023/02/25 06:14:15;;;;;;;13.80;2.70;;;;;;;;;;5051591;28;20072;-84
2023/02/25 06:16:41;;;;;;;10.25;2.40;;;;;;;;;;5059065;28;20175;-84
2023/02/25 06:19:08;;;;;;;6.68;2.20;;;;;;;;;;5051523;28;20025;-83
2023/02/25 06:21:35;;;;;;;11.20;2.70;;;;;;;;;;5067198;28;20479;-83
2023/02/25 06:24:02;;;;;;;10.18;2.67;;;;;;;;;;5056131;28;20382;-86
2023/02/25 06:26:29;;;;;;;9.60;2.47;;;;;;;;;;5065964;28;20064;-86
2023/02/25 06:28:55;;;;;;;9.95;2.83;;;;;;;;;;5057185;28;20032;-84
2023/02/25 06:31:23;;;;;;;11.40;2.75;;;;;;;;;;5063152;28;20082;-83
2023/02/25 06:33:50;;;;;;;9.05;2.50;;;;;;;;;;5047628;28;20022;-84
2023/02/25 06:36:19;;;;;;;10.98;2.38;;;;;;;;;;5062862;28;20051;-83
2023/02/25 06:38:45;;;;;;;6.82;2.63;;;;;;;;;;5050252;28;20144;-85
2023/02/25 06:41:21;;;;;;;11.23;2.63;;;;;;;;;;5060766;28;20028;-84
2023/02/25 06:43:51;;;;;;;6.72;2.33;;;;;;;;;;5056063;28;20023;-84
2023/02/25 06:46:18;;;;;;;9.55;3.03;;;;;;;;;;5061703;28;20071;-85
2023/02/25 06:48:47;;;;;;;9.05;2.72;;;;;;;;;;5075986;28;20026;-84
2023/02/25 06:51:14;;;;;;;19.75;2.85;;;;;;;;;;5063802;28;20034;-86
2023/02/25 06:53:42;;;;;;;6.43;2.72;;;;;;;;;;5057820;28;20033;-85
2023/02/25 06:56:09;;;;;;;10.38;2.80;;;;;;;;;;5082727;28;20074;-86
2023/02/25 06:58:36;;;;;;;8.40;2.50;;;;;;;;;;5069925;28;20444;-84
2023/02/25 07:01:09;;;;;;;8.65;2.60;;;;;;;;;;5081684;28;20042;-86
2023/02/25 07:03:36;;;;;;;17.15;3.35;;;;;;;;;;5074049;28;20047;-83
2023/02/25 07:06:02;;;;;;;12.45;2.72;;;;;;;;;;5084490;28;20036;-83
2023/02/25 07:08:29;;;;;;;13.65;2.60;;;;;;;;;;5065384;28;20433;-83
2023/02/25 07:10:56;;;;;;;10.20;2.55;;;;;;;;;;5089114;28;20039;-84
2023/02/25 07:13:22;;;;;;;9.13;2.30;;;;;;;;;;5075033;28;20020;-84
2023/02/25 07:15:48;;;;;;;8.63;2.67;;;;;;;;;;5078398;28;20323;-84
2023/02/25 07:18:15;;;;;;;7.18;2.38;;;;;;;;;;5080634;28;20016;-85
2023/02/25 07:20:41;;;;;;;7.15;2.55;;;;;;;;;;5093330;28;20035;-85
2023/02/25 07:23:07;;;;;;;7.50;2.17;;;;;;;;;;5096081;28;20019;-84
2023/02/25 07:25:33;;;;;;;12.93;2.83;;;;;;;;;;5091180;28;20036;-83
2023/02/25 07:28:00;;;;;;;13.10;2.83;;;;;;;;;;5080042;28;20424;-83
2023/02/25 07:30:29;;;;;;;7.45;2.22;;;;;;;;;;5079746;28;20169;-85
2023/02/25 07:32:55;;;;;;;8.18;3.17;;;;;;;;;;5073505;28;20490;-84
2023/02/25 07:35:22;;;;;;;9.90;2.75;;;;;;;;;;5073043;28;20489;-82
2023/02/25 07:37:48;;;;;;;9.82;3.28;;;;;;;;;;5074795;28;20237;-84
2023/02/25 07:40:15;;;;;;;8.68;2.88;;;;;;;;;;5079193;28;20421;-85
2023/02/25 07:42:42;;;;;;;9.75;2.60;;;;;;;;;;5078665;28;20093;-84
2023/02/25 07:45:09;;;;;;;9.75;2.60;;;;;;;;;;5081281;28;20186;-84
2023/02/25 07:47:35;;;;;;;9.20;2.65;;;;;;;;;;5079476;28;20245;-85
2023/02/25 07:50:02;;;;;;;6.05;2.85;;;;;;;;;;5075752;28;20630;-85
2023/02/25 07:52:28;;;;;;;8.50;2.20;;;;;;;;;;5087156;28;20043;-84
2023/02/25 07:54:54;;;;;;;8.27;3.05;;;;;;;;;;5066171;28;20019;-84
2023/02/25 07:57:21;;;;;;;10.75;2.47;;;;;;;;;;5085237;28;20043;-85
2023/02/25 07:59:47;;;;;;;7.20;2.60;;;;;;;;;;5092717;28;20077;-84
2023/02/25 08:02:14;;;;;;;10.65;2.78;;;;;;;;;;5077700;28;20019;-85
2023/02/25 08:04:40;;;;;;;7.28;2.70;;;;;;;;;;5070556;28;20050;-85
2023/02/25 08:07:06;;;;;;;10.82;2.90;;;;;;;;;;5087184;28;20094;-84
2023/02/25 08:09:33;;;;;;;9.77;2.58;;;;;;;;;;5063209;28;20020;-84
2023/02/25 08:11:59;;;;;;;11.82;2.75;;;;;;;;;;5075854;28;20027;-86
2023/02/25 08:14:25;;;;;;;10.77;2.63;;;;;;;;;;5089183;28;20182;-85
2023/02/25 08:16:55;;;;;;;9.98;3.17;;;;;;;;;;5064250;28;20053;-84
2023/02/25 08:19:21;;;;;;;6.53;2.70;;;;;;;;;;5092671;28;20019;-84
2023/02/25 08:21:47;;;;;;;5.55;2.53;;;;;;;;;;5088086;28;20016;-83
2023/02/25 08:24:13;;;;;;;11.23;2.42;;;;;;;;;;5079915;28;20023;-85
2023/02/25 08:26:40;;;;;;;8.13;3.15;;;;;;;;;;5089615;28;20140;-85
2023/02/25 08:29:08;;;;;;;8.68;2.03;;;;;;;;;;5062550;28;20470;-84
2023/02/25 08:31:34;;;;;;;9.10;2.25;;;;;;;;;;5078450;28;20038;-84
2023/02/25 08:34:00;;;;;;;4.65;2.25;;;;;;;;;;5085942;28;20019;-85
2023/02/25 08:36:29;;;;;;;12.50;2.58;;;;;;;;;;5072141;28;20028;-86
2023/02/25 08:38:56;;;;;;;9.32;2.60;;;;;;;;;;5094615;27;20116;-86
2023/02/25 08:41:24;;;;;;;11.95;2.45;;;;;;;;;;5091846;27;20016;-85
2023/02/25 08:43:53;;;;;;;9.75;2.95;;;;;;;;;;5094745;28;20069;-86
2023/02/25 08:46:20;;;;;;;9.18;2.65;;;;;;;;;;5074701;28;20421;-84
2023/02/25 08:48:48;;;;;;;8.23;2.58;;;;;;;;;;5079021;28;20553;-85
2023/02/25 08:51:14;;;;;;;5.82;2.35;;;;;;;;;;5079614;28;20493;-85
2023/02/25 08:53:41;;;;;;;11.57;2.90;;;;;;;;;;5081244;28;20067;-85
2023/02/25 08:56:08;;;;;;;4.95;2.22;;;;;;;;;;5079412;27;20180;-86
2023/02/25 08:58:34;;;;;;;7.10;2.70;;;;;;;;;;5072348;28;20039;-85
2023/02/25 09:01:01;;;;;;;4.95;2.42;;;;;;;;;;5086148;27;20096;-86
2023/02/25 09:03:27;;;;;;;11.23;2.65;;;;;;;;;;5067944;28;20587;-87
2023/02/25 09:05:54;;;;;;;5.35;2.50;;;;;;;;;;5089387;27;20040;-85
2023/02/25 09:08:21;;;;;;;8.55;2.47;;;;;;;;;;5076411;28;20019;-86
2023/02/25 09:10:47;;;;;;;5.40;2.13;;;;;;;;;;5081141;28;20030;-86
2023/02/25 09:13:13;;;;;;;9.52;2.38;;;;;;;;;;5080448;28;20054;-84
2023/02/25 09:15:40;;;;;;;5.18;2.20;;;;;;;;;;5071919;28;20020;-86
2023/02/25 09:18:06;;;;;;;4.75;1.65;;;;;;;;;;5077017;27;20012;-85
2023/02/25 09:20:33;;;;;;;9.60;2.22;;;;;;;;;;5089896;28;20468;-86
2023/02/25 09:22:59;;;;;;;4.63;2.03;;;;;;;;;;5061530;28;20486;-85
2023/02/25 09:25:26;;;;;;;8.70;3.03;;;;;;;;;;5071979;28;20406;-86
2023/02/25 09:27:52;;;;;;;5.43;2.13;;;;;;;;;;5073667;28;20020;-85
2023/02/25 09:30:18;;;;;;;7.30;2.30;;;;;;;;;;5076175;28;20028;-85
2023/02/25 09:32:44;;;;;;;8.93;2.63;;;;;;;;;;5096955;28;20016;-84
2023/02/25 09:35:11;;;;;;;6.05;1.98;;;;;;;;;;5078955;28;20032;-84
2023/02/25 09:37:37;;;;;;;6.85;2.13;;;;;;;;;;5079392;28;20114;-84
2023/02/25 09:40:05;;;;;;;5.65;2.08;;;;;;;;;;5073278;28;20123;-85
2023/02/25 09:42:45;;;;;;;6.70;2.53;;;;;;;;;;5076099;28;20020;-84
2023/02/25 09:45:14;;;;;;;6.00;2.22;;;;;;;;;;5079805;28;20035;-84
2023/02/25 09:47:44;;;;;;;6.13;2.30;;;;;;;;;;5088848;28;20043;-83
2023/02/25 09:50:13;;;;;;;6.18;2.50;;;;;;;;;;5093204;28;20030;-85
2023/02/25 09:52:45;;;;;;;8.18;2.28;;;;;;;;;;5090593;28;20016;-85
2023/02/25 09:55:20;;;;;;;5.95;2.33;;;;;;;;;;5073668;28;20170;-86
2023/02/25 09:58:07;;;;;;;6.18;2.05;;;;;;;;;;5049505;28;20427;-85
2023/02/25 10:00:37;;;;;;;5.07;2.22;;;;;;;;;;5053882;28;20016;-85
2023/02/25 10:03:07;;;;;;;7.85;2.67;;;;;;;;;;5056663;28;20030;-84
2023/02/25 10:05:38;;;;;;;4.13;2.30;;;;;;;;;;5052486;28;20434;-86
2023/02/25 10:08:17;;;;;;;5.13;2.25;;;;;;;;;;5051890;28;20093;-86
2023/02/25 10:10:45;;;;;;;6.30;2.67;;;;;;;;;;5066372;28;20028;-85
2023/02/25 10:13:27;;;;;;;6.15;2.20;;;;;;;;;;5058146;28;20016;-85
2023/02/25 10:16:02;;;;;;;7.65;2.53;;;;;;;;;;5068512;28;20031;-86
2023/02/25 10:18:32;;;;;;;3.95;2.33;;;;;;;;;;5063131;28;20017;-85
2023/02/25 10:20:58;;;;;;;5.90;1.92;;;;;;;;;;5047441;28;20055;-84
2023/02/25 10:23:24;;;;;;;8.07;2.28;;;;;;;;;;5051396;28;20025;-85
2023/02/25 10:26:06;;;;;;;6.97;2.10;;;;;;;;;;5056914;28;20482;-86
2023/02/25 10:28:35;;;;;;;6.03;2.20;;;;;;;;;;5074817;28;20012;-85
2023/02/25 10:31:07;;;;;;;3.15;1.70;;;;;;;;;;5056105;28;20551;-85
2023/02/25 10:33:35;;;;;;;3.65;1.70;;;;;;;;;;5061362;28;20013;-83
2023/02/25 10:36:20;;;;;;;5.50;1.60;;;;;;;;;;5058307;28;20629;-85
2023/02/25 10:38:51;;;;;;;3.72;2.13;;;;;;;;;;5072827;28;20374;-86
2023/02/25 10:41:21;;;;;;;4.67;2.13;;;;;;;;;;5075765;28;20020;-85
2023/02/25 10:43:48;;;;;;;5.18;2.30;;;;;;;;;;5051429;28;20027;-84
2023/02/25 10:46:35;;;;;;;4.32;2.78;;;;;;;;;;5060784;28;20066;-84
2023/02/25 10:49:13;;;;;;;6.22;2.58;;;;;;;;;;5075213;28;20085;-85
2023/02/25 10:51:56;;;;;;;6.78;2.42;;;;;;;;;;5056974;28;20039;-86
2023/02/25 10:54:23;;;;;;;5.18;2.85;;;;;;;;;;5060765;28;20024;-86
2023/02/25 10:56:50;;;;;;;5.15;2.65;;;;;;;;;;5052776;28;20048;-86
2023/02/25 10:59:34;;;;;;;5.10;2.90;;;;;;;;;;5061928;28;20024;-85
2023/02/25 11:02:01;;;;;;;6.53;2.90;;;;;;;;;;5057865;28;20032;-85
2023/02/25 11:04:38;;;;;;;8.05;3.22;;;;;;;;;;5078977;28;20123;-85
2023/02/25 11:07:23;;;;;;;9.70;3.47;;;;;;;;;;5043151;28;20655;-85
2023/02/25 11:09:49;;;;;;;6.00;3.67;;;;;;;;;;5069545;28;20017;-84
2023/02/25 11:12:23;;;;;;;9.70;3.65;;;;;;;;;;5061165;28;20094;-84
2023/02/25 11:14:49;;;;;;;8.15;3.50;;;;;;;;;;5074713;28;20496;-87
2023/02/25 11:17:20;;;;;;;8.05;3.55;;;;;;;;;;5073627;28;20032;-86
2023/02/25 11:19:52;;;;;;;7.95;3.55;;;;;;;;;;5049231;28;20467;-86
2023/02/25 11:22:21;;;;;;;12.65;4.65;;;;;;;;;;5059816;28;20049;-85
2023/02/25 11:24:55;;;;;;;5.85;3.30;;;;;;;;;;5055829;28;20174;-85
2023/02/25 11:27:40;;;;;;;7.38;3.30;;;;;;;;;;5055156;28;20031;-85
2023/02/25 11:30:07;;;;;;;6.32;4.00;;;;;;;;;;5074141;28;20020;-85
2023/02/25 11:32:34;;;;;;;8.18;4.35;;;;;;;;;;5054338;28;20101;-84
2023/02/25 11:35:07;;;;;;;7.63;4.60;;;;;;;;;;5057202;28;20129;-85
2023/02/25 11:37:42;;;;;;;9.63;4.85;;;;;;;;;;5059805;28;20545;-84
2023/02/25 11:40:24;;;;;;;9.30;7.55;;;;;;;;;;5056136;28;20024;-84
2023/02/25 11:43:16;;;;;;;7.45;5.50;;;;;;;;;;5066496;28;20024;-84
2023/02/25 11:46:07;;;;;;;9.57;6.38;;;;;;;;;;5056495;28;20043;-82
2023/02/25 11:48:46;;;;;;;7.22;5.35;;;;;;;;;;5059211;28;20466;-84
2023/02/25 11:51:29;;;;;;;7.97;4.00;;;;;;;;;;5069702;28;20020;-85
2023/02/25 11:54:14;;;;;;;6.07;4.22;;;;;;;;;;5076970;28;20105;-84
2023/02/25 11:56:47;;;;;;;9.57;4.53;;;;;;;;;;5072481;27;20079;-85
2023/02/25 11:59:32;;;;;;;8.82;4.47;;;;;;;;;;5078493;27;20234;-84
2023/02/25 12:02:16;;;;;;;7.85;4.75;;;;;;;;;;5072313;28;20024;-85
2023/02/25 12:04:43;;;;;;;7.85;4.70;;;;;;;;;;5072996;28;20032;-84
2023/02/25 12:07:30;;;;;;;8.50;4.40;;;;;;;;;;5078878;27;20039;-84
2023/02/25 12:10:02;;;;;;;7.78;4.20;;;;;;;;;;5074179;28;20024;-85
2023/02/25 12:12:44;;;;;;;7.57;4.07;;;;;;;;;;5082397;28;20047;-84
2023/02/25 12:15:10;;;;;;;8.82;3.63;;;;;;;;;;5079478;27;20120;-82
2023/02/25 12:17:52;;;;;;;11.65;4.07;;;;;;;;;;5083092;27;20556;-83
2023/02/25 12:20:37;;;;;;;10.93;4.28;;;;;;;;;;5077447;27;20074;-85
2023/02/25 12:23:22;;;;;;;8.82;4.22;;;;;;;;;;5079824;28;20100;-84
2023/02/25 12:25:48;;;;;;;6.97;4.40;;;;;;;;;;5078885;28;20101;-84
2023/02/25 12:28:33;;;;;;;7.93;4.40;;;;;;;;;;5079953;28;20058;-84
2023/02/25 12:31:18;;;;;;;9.30;4.43;;;;;;;;;;5077212;28;20027;-84
2023/02/25 12:34:04;;;;;;;8.73;4.25;;;;;;;;;;5072201;28;20055;-85
2023/02/25 12:36:30;;;;;;;13.27;4.95;;;;;;;;;;5085379;28;20031;-85
2023/02/25 12:39:02;;;;;;;11.30;4.32;;;;;;;;;;5073875;28;20059;-85
2023/02/25 12:41:29;;;;;;;9.88;4.20;;;;;;;;;;5080424;28;20043;-85
2023/02/25 12:44:14;;;;;;;7.80;4.22;;;;;;;;;;5077671;28;20027;-84
2023/02/25 12:46:40;;;;;;;10.80;4.38;;;;;;;;;;5093793;27;20061;-83
2023/02/25 12:49:16;;;;;;;6.43;4.28;;;;;;;;;;5074538;28;20496;-84
2023/02/25 12:52:01;;;;;;;10.88;4.95;;;;;;;;;;5081152;28;20019;-87
2023/02/25 12:54:27;;;;;;;7.63;4.10;;;;;;;;;;5081111;28;20544;-83
2023/02/25 12:56:56;;;;;;;8.57;3.85;;;;;;;;;;5061014;28;20085;-85
2023/02/25 12:59:22;;;;;;;8.95;4.38;;;;;;;;;;5052293;28;20409;-84
2023/02/25 13:01:52;;;;;;;7.10;4.47;;;;;;;;;;5071166;28;20028;-84
2023/02/25 13:04:18;;;;;;;6.60;4.38;;;;;;;;;;5056919;28;20028;-83
2023/02/25 13:06:52;;;;;;;6.32;4.13;;;;;;;;;;5067253;28;20055;-83
2023/02/25 13:09:21;;;;;;;8.45;4.35;;;;;;;;;;5059089;28;20024;-83
2023/02/25 13:11:50;;;;;;;7.35;4.18;;;;;;;;;;5061632;28;20024;-84
2023/02/25 13:14:22;;;;;;;8.32;4.28;;;;;;;;;;5077629;28;20427;-85
2023/02/25 13:16:57;;;;;;;7.50;4.18;;;;;;;;;;5054505;28;20016;-83
2023/02/25 13:19:26;;;;;;;7.85;4.30;;;;;;;;;;5071981;28;20042;-84
2023/02/25 13:22:11;;;;;;;10.50;3.95;;;;;;;;;;5055689;28;20034;-85
2023/02/25 13:24:45;;;;;;;9.18;3.85;;;;;;;;;;5053395;28;20036;-85
2023/02/25 13:27:30;;;;;;;8.75;3.85;;;;;;;;;;5050752;28;20035;-84
2023/02/25 13:29:59;;;;;;;8.43;3.78;;;;;;;;;;5057540;28;20156;-85
2023/02/25 13:32:31;;;;;;;6.90;3.60;;;;;;;;;;5047260;28;20029;-84
2023/02/25 13:35:12;;;;;;;7.55;3.60;;;;;;;;;;5063655;28;20020;-85
2023/02/25 13:37:41;;;;;;;4.65;3.00;;;;;;;;;;5057626;28;20032;-83
2023/02/25 13:40:31;;;;;;;8.13;3.55;;;;;;;;;;5052568;28;20027;-85
2023/02/25 13:43:07;;;;;;;9.02;3.47;;;;;;;;;;5041445;28;20667;-85
2023/02/25 13:45:52;;;;;;;7.43;3.20;;;;;;;;;;5067149;28;20398;-83
2023/02/25 13:48:29;;;;;;;6.82;3.45;;;;;;;;;;5072089;28;20028;-85
2023/02/25 13:51:09;;;;;;;10.95;3.85;;;;;;;;;;5071928;28;20091;-86
2023/02/25 13:53:52;;;;;;;7.55;3.63;;;;;;;;;;5072707;28;20266;-85
2023/02/25 13:56:45;;;;;;;7.78;3.47;;;;;;;;;;5065145;28;20063;-85
2023/02/25 13:59:23;;;;;;;6.70;3.50;;;;;;;;;;5073143;28;20498;-84
2023/02/25 14:01:49;;;;;;;7.68;3.53;;;;;;;;;;5062424;28;20032;-86
2023/02/25 14:04:19;;;;;;;4.68;3.17;;;;;;;;;;5057356;28;20032;-87
2023/02/25 14:06:54;;;;;;;10.05;4.68;;;;;;;;;;5084772;28;20048;-86
2023/02/25 14:09:53;;;;;;;9.95;4.25;;;;;;;;;;5052035;28;20106;-86
2023/02/25 14:12:43;;;;;;;8.75;4.15;;;;;;;;;;5016482;28;20035;-86
2023/02/25 14:15:18;;;;;;;8.80;3.58;;;;;;;;;;5028467;28;20549;-85
2023/02/25 14:17:47;;;;;;;8.90;4.22;;;;;;;;;;5062354;28;20039;-88
2023/02/25 14:20:31;;;;;;;8.75;3.95;;;;;;;;;;5078213;28;20204;-88
2023/02/25 14:23:06;;;;;;;13.88;4.53;;;;;;;;;;5059024;28;20494;-89
2023/02/25 14:25:51;;;;;;;6.95;3.90;;;;;;;;;;5075499;28;20503;-87
2023/02/25 14:28:17;;;;;;;6.82;3.53;;;;;;;;;;5075165;28;20501;-89
2023/02/25 14:30:44;;;;;;;9.00;3.55;;;;;;;;;;5063862;28;20631;-88
2023/02/25 14:33:16;;;;;;;7.38;3.72;;;;;;;;;;5063665;28;20020;-87
2023/02/25 14:35:45;;;;;;;10.45;4.00;;;;;;;;;;5059089;28;20108;-88
2023/02/25 14:38:20;;;;;;;8.48;3.47;;;;;;;;;;5080571;28;20020;-87
2023/02/25 14:41:09;;;;;;;10.30;3.15;;;;;;;;;;5061958;28;20519;-89
2023/02/25 14:43:36;;;;;;;11.20;3.72;;;;;;;;;;5057434;28;20023;-88
2023/02/25 14:46:22;;;;;;;11.45;3.15;;;;;;;;;;5089176;28;20067;-88
2023/02/25 14:49:00;;;;;;;16.25;3.13;;;;;;;;;;5061428;28;20039;-87
2023/02/25 14:51:45;;;;;;;13.40;4.20;;;;;;;;;;5064203;28;20020;-89
2023/02/25 14:54:34;;;;;;;9.95;3.33;;;;;;;;;;5061386;28;20081;-84
2023/02/25 14:57:11;;;;;;;13.32;3.25;;;;;;;;;;5074666;27;20967;-85
2023/02/25 14:59:56;;;;;;;14.20;3.30;;;;;;;;;;5072304;28;20502;-85